Maatsuyker Island, Australia
Current Conditions -  °F | °C
As of 11:36 PM on Saturday 25 Oct 2014 (Local Time) from YMHB Reporting Station
Light Rain Light Rain  
Wind Chill: 52°   Ceiling: 2000
Heat Index: 52°   Visibility: 4mi
Dew Point: 46°   Wind: 5mph
Humidity: 82%   Direction: 70°ENE
Pressure: 30.06"   Gusts: NA
Location:  43.65°S, 146.28°E
Report Text: YMHB 251236Z 07004KT 6000 -RA OVC020 11/08 Q1018
Loading
Personal Weather Stations






























Interactive Weather Map
Tropical Storm Tracking
New forecast layout! Learn more

10-Day Weather Forecast

Advertisements
Track Severe Weather on mobile